createdAt,value
2023-04-21T00:00:10.516Z,16.60
2023-04-21T00:02:39.938Z,22.63
2023-04-21T00:05:13.971Z,17.38
2023-04-21T00:07:41.830Z,14.27
2023-04-21T00:10:10.633Z,19.15
2023-04-21T00:12:38.484Z,22.73
2023-04-21T00:15:06.591Z,22.55
2023-04-21T00:17:33.806Z,16.00
2023-04-21T00:20:00.942Z,19.48
2023-04-21T00:22:28.033Z,21.58
2023-04-21T00:24:55.215Z,20.38
2023-04-21T00:27:22.338Z,20.73
2023-04-21T00:29:49.625Z,26.13
2023-04-21T00:32:18.156Z,16.33
2023-04-21T00:34:45.582Z,23.10
2023-04-21T00:37:12.713Z,23.67
2023-04-21T00:39:40.009Z,18.67
2023-04-21T00:42:07.180Z,20.35
2023-04-21T00:44:36.089Z,20.20
2023-04-21T00:47:04.382Z,31.35
2023-04-21T00:49:31.842Z,23.80
2023-04-21T00:51:59.357Z,22.90
2023-04-21T00:54:27.521Z,23.08
2023-04-21T00:56:55.882Z,22.48
2023-04-21T00:59:23.727Z,27.40
2023-04-21T01:01:52.956Z,26.20
2023-04-21T01:04:21.913Z,26.00
2023-04-21T01:06:49.152Z,22.95
2023-04-21T01:09:16.709Z,21.83
2023-04-21T01:12:07.420Z,24.50
2023-04-21T01:14:39.257Z,23.17
2023-04-21T01:17:08.015Z,31.25
2023-04-21T01:19:42.877Z,25.27
2023-04-21T01:22:11.818Z,24.58
2023-04-21T01:24:43.840Z,18.77
2023-04-21T01:27:15.115Z,26.75
2023-04-21T01:29:43.872Z,20.50
2023-04-21T01:32:15.077Z,30.65
2023-04-21T01:34:43.870Z,19.92
2023-04-21T01:37:13.537Z,26.45
2023-04-21T01:39:42.398Z,34.60
2023-04-21T01:42:09.971Z,24.45
2023-04-21T01:44:37.622Z,23.08
2023-04-21T01:47:05.083Z,19.40
2023-04-21T01:49:32.395Z,23.05
2023-04-21T01:51:59.517Z,22.50
2023-04-21T01:54:26.784Z,23.80
2023-04-21T01:56:54.048Z,25.00
2023-04-21T01:59:21.855Z,27.85
2023-04-21T02:01:49.114Z,21.83
2023-04-21T02:04:16.364Z,19.98
2023-04-21T02:06:43.908Z,23.90
2023-04-21T02:09:11.274Z,23.05
2023-04-21T02:11:38.437Z,30.27
2023-04-21T02:14:06.146Z,26.58
2023-04-21T02:16:33.341Z,24.85
2023-04-21T02:19:01.432Z,25.05
2023-04-21T02:21:28.767Z,23.75
2023-04-21T02:23:56.400Z,31.73
2023-04-21T02:26:26.624Z,29.35
2023-04-21T02:28:54.298Z,25.38
2023-04-21T02:31:21.460Z,29.00
2023-04-21T02:33:48.924Z,24.55
2023-04-21T02:36:16.091Z,28.27
2023-04-21T02:38:43.248Z,28.55
2023-04-21T02:41:11.115Z,32.42
2023-04-21T02:43:38.325Z,31.33
2023-04-21T02:46:09.471Z,25.95
2023-04-21T02:48:36.935Z,41.80
2023-04-21T02:51:04.833Z,27.67
2023-04-21T02:53:32.818Z,22.27
2023-04-21T02:56:02.449Z,31.45
2023-04-21T02:58:31.207Z,28.17
2023-04-21T03:00:58.410Z,30.20
2023-04-21T03:03:26.002Z,27.63
2023-04-21T03:06:01.212Z,27.65
2023-04-21T03:08:28.540Z,32.88
2023-04-21T03:10:55.831Z,28.90
2023-04-21T03:13:24.268Z,30.98
2023-04-21T03:15:52.367Z,27.73
2023-04-21T03:18:19.528Z,31.63
2023-04-21T03:20:46.588Z,27.52
2023-04-21T03:23:13.857Z,28.55
2023-04-21T03:25:41.048Z,30.02
2023-04-21T03:28:08.344Z,25.60
2023-04-21T03:30:35.543Z,27.08
2023-04-21T03:33:03.553Z,28.33
2023-04-21T03:35:34.308Z,31.75
2023-04-21T03:38:03.692Z,28.10
2023-04-21T03:40:31.280Z,28.08
2023-04-21T03:42:58.611Z,23.50
2023-04-21T03:45:25.777Z,33.03
2023-04-21T03:47:56.997Z,33.70
2023-04-21T03:50:24.309Z,33.70
2023-04-21T03:52:51.484Z,31.77
2023-04-21T03:55:18.826Z,32.47
2023-04-21T03:57:46.048Z,21.05
2023-04-21T04:00:14.034Z,32.28
2023-04-21T04:02:41.718Z,29.80
2023-04-21T04:05:09.404Z,36.15
2023-04-21T04:07:36.982Z,25.60
2023-04-21T04:10:04.566Z,27.73
2023-04-21T04:12:31.736Z,30.27
2023-04-21T04:14:59.005Z,30.92
2023-04-21T04:17:26.405Z,34.10
2023-04-21T04:19:53.618Z,29.20
2023-04-21T04:22:21.037Z,34.60
2023-04-21T04:24:48.805Z,30.92
2023-04-21T04:27:16.726Z,26.98
2023-04-21T04:29:44.046Z,31.77
2023-04-21T04:32:11.408Z,40.22
2023-04-21T04:34:38.802Z,37.72
2023-04-21T04:37:06.725Z,37.55
2023-04-21T04:39:34.065Z,36.33
2023-04-21T04:42:01.491Z,37.22
2023-04-21T04:44:28.789Z,34.50
2023-04-21T04:46:56.835Z,37.30
2023-04-21T04:49:24.253Z,37.17
2023-04-21T04:51:51.666Z,34.65
2023-04-21T04:54:19.149Z,31.40
2023-04-21T04:56:46.434Z,31.85
2023-04-21T04:59:13.638Z,37.88
2023-04-21T05:01:42.094Z,35.65
2023-04-21T05:04:09.568Z,38.55
2023-04-21T05:06:37.413Z,38.50
2023-04-21T05:09:05.095Z,38.17
2023-04-21T05:11:32.431Z,40.65
2023-04-21T05:13:59.791Z,37.65
2023-04-21T05:16:27.012Z,33.13
2023-04-21T05:18:54.303Z,33.92
2023-04-21T05:21:28.452Z,39.05
2023-04-21T05:23:59.444Z,30.58
2023-04-21T05:26:27.902Z,28.10
2023-04-21T05:28:57.518Z,41.85
2023-04-21T05:31:27.554Z,36.65
2023-04-21T05:33:54.793Z,37.28
2023-04-21T05:36:21.958Z,34.83
2023-04-21T05:38:49.211Z,33.95
2023-04-21T05:41:16.520Z,37.05
2023-04-21T05:43:43.728Z,32.25
2023-04-21T05:46:11.465Z,32.47
2023-04-21T05:48:38.846Z,33.03
2023-04-21T05:51:15.935Z,38.75
2023-04-21T05:53:44.585Z,27.05
2023-04-21T05:56:13.277Z,34.63
2023-04-21T05:58:40.464Z,33.13
2023-04-21T06:01:07.661Z,28.00
2023-04-21T06:03:35.082Z,30.10
2023-04-21T06:06:04.661Z,31.58
2023-04-21T06:08:32.399Z,34.58
2023-04-21T06:10:59.595Z,26.50
2023-04-21T06:13:29.736Z,25.70
2023-04-21T06:15:57.027Z,23.23
2023-04-21T06:18:24.302Z,24.83
2023-04-21T06:20:52.660Z,24.50
2023-04-21T06:23:19.994Z,23.95
2023-04-21T06:25:47.695Z,31.27
2023-04-21T06:28:14.823Z,26.33
2023-04-21T06:30:42.162Z,26.50
2023-04-21T06:33:09.626Z,23.55
2023-04-21T06:35:36.880Z,23.38
2023-04-21T06:38:04.010Z,20.70
2023-04-21T06:40:31.157Z,20.52
2023-04-21T06:42:58.296Z,19.23
2023-04-21T06:45:25.663Z,17.88
2023-04-21T06:47:52.932Z,25.08
2023-04-21T06:50:20.121Z,19.17
2023-04-21T06:52:47.288Z,18.80
2023-04-21T06:55:14.718Z,19.05
2023-04-21T06:57:42.071Z,23.20
2023-04-21T07:00:09.844Z,22.35
2023-04-21T07:02:37.170Z,16.33
2023-04-21T07:05:05.117Z,16.38
2023-04-21T07:07:32.424Z,17.30
2023-04-21T07:09:59.805Z,24.70
2023-04-21T07:12:26.967Z,25.02
2023-04-21T07:14:54.252Z,25.70
2023-04-21T07:17:21.394Z,15.48
2023-04-21T07:19:48.613Z,13.75
2023-04-21T07:22:15.881Z,16.77
2023-04-21T07:24:43.085Z,20.35
2023-04-21T07:27:10.207Z,17.20
2023-04-21T07:29:37.670Z,18.50
2023-04-21T07:32:05.049Z,17.95
2023-04-21T07:34:32.256Z,13.90
2023-04-21T07:36:59.347Z,14.00
2023-04-21T07:39:26.984Z,16.27
2023-04-21T07:41:54.219Z,15.05
2023-04-21T07:44:21.328Z,15.30
2023-04-21T07:46:48.498Z,15.63
2023-04-21T07:49:15.829Z,11.10
2023-04-21T07:51:43.033Z,12.07
2023-04-21T07:54:10.260Z,11.75
2023-04-21T07:56:37.411Z,14.20
2023-04-21T07:59:04.593Z,13.13
2023-04-21T08:01:31.824Z,14.43
2023-04-21T08:03:59.081Z,17.08
2023-04-21T08:06:27.693Z,14.02
2023-04-21T08:08:56.025Z,11.00
2023-04-21T08:11:23.505Z,13.52
2023-04-21T08:13:50.658Z,11.02
2023-04-21T08:16:18.004Z,11.10
2023-04-21T08:18:45.329Z,12.73
2023-04-21T08:21:12.645Z,13.63
2023-04-21T08:23:39.880Z,12.27
2023-04-21T08:26:07.352Z,13.55
2023-04-21T08:28:34.820Z,12.20
2023-04-21T08:31:02.479Z,18.65
2023-04-21T08:33:29.845Z,13.38
2023-04-21T08:36:05.450Z,11.32
2023-04-21T08:38:43.037Z,12.60
2023-04-21T08:41:10.720Z,10.02
2023-04-21T08:43:38.165Z,12.30
2023-04-21T08:46:08.325Z,11.38
2023-04-21T08:48:39.344Z,7.95
2023-04-21T08:51:10.433Z,7.93
2023-04-21T08:53:38.416Z,10.50
2023-04-21T08:58:36.397Z,8.48
2023-04-21T09:01:03.636Z,10.40
2023-04-21T09:03:31.536Z,10.85
2023-04-21T09:06:07.982Z,9.95
2023-04-21T09:08:40.235Z,10.05
2023-04-21T09:11:07.550Z,9.48
2023-04-21T09:13:38.334Z,11.57
2023-04-21T09:16:17.902Z,10.98
2023-04-21T09:18:45.365Z,8.10
2023-04-21T09:21:16.822Z,8.55
2023-04-21T09:23:47.048Z,10.50
2023-04-21T09:26:15.982Z,9.77
2023-04-21T09:28:50.895Z,8.68
2023-04-21T09:31:20.685Z,8.85
2023-04-21T09:34:00.725Z,11.38
2023-04-21T09:36:31.023Z,11.40
2023-04-21T09:41:33.966Z,12.05
2023-04-21T09:44:07.032Z,9.68
2023-04-21T09:46:36.037Z,9.68
2023-04-21T09:49:04.358Z,10.95
2023-04-21T09:51:56.328Z,4.00
2023-04-21T09:56:56.468Z,5.25
2023-04-21T09:59:32.475Z,4.70
2023-04-21T10:02:01.458Z,4.97
2023-04-21T10:04:32.056Z,5.35
2023-04-21T10:07:03.231Z,5.20
2023-04-21T10:09:54.619Z,4.25
2023-04-21T10:12:23.352Z,5.13
2023-04-21T10:14:57.192Z,5.97
2023-04-21T10:17:26.641Z,6.40
2023-04-21T10:19:57.481Z,8.30
2023-04-21T10:22:32.751Z,4.38
2023-04-21T10:25:03.589Z,7.40
2023-04-21T10:27:37.772Z,7.45
2023-04-21T10:30:26.678Z,5.20
2023-04-21T10:33:05.108Z,4.45
2023-04-21T10:36:03.246Z,4.72
2023-04-21T10:38:42.054Z,4.70
2023-04-21T10:41:28.754Z,5.75
2023-04-21T10:44:12.452Z,5.57
2023-04-21T10:46:41.313Z,6.95
2023-04-21T10:49:30.757Z,4.03
2023-04-21T10:51:58.388Z,4.80
2023-04-21T10:54:46.133Z,4.60
2023-04-21T10:57:18.184Z,4.28
2023-04-21T10:59:47.495Z,6.70
2023-04-21T11:02:16.691Z,5.70
2023-04-21T11:04:49.923Z,5.10
2023-04-21T11:07:26.220Z,5.40
2023-04-21T11:10:00.851Z,5.03
2023-04-21T11:12:33.949Z,6.72
2023-04-21T11:15:08.578Z,5.55
2023-04-21T11:17:39.325Z,5.75
2023-04-21T11:20:07.410Z,6.70
2023-04-21T11:22:37.797Z,5.25
2023-04-21T11:25:05.489Z,6.38
2023-04-21T11:27:32.794Z,5.95
2023-04-21T11:30:03.974Z,5.65
2023-04-21T11:32:31.361Z,5.60
2023-04-21T11:34:58.748Z,5.80
2023-04-21T11:37:27.220Z,4.28
2023-04-21T11:40:01.293Z,4.10
2023-04-21T11:42:29.166Z,7.40
2023-04-21T11:44:57.405Z,6.80
2023-04-21T11:47:26.548Z,6.50
2023-04-21T11:49:56.447Z,7.90
2023-04-21T11:52:33.154Z,6.72
2023-04-21T11:55:02.989Z,8.82
2023-04-21T11:57:32.576Z,8.75
2023-04-21T12:00:11.952Z,8.05
2023-04-21T12:02:39.709Z,9.43
2023-04-21T12:05:10.084Z,7.75
2023-04-21T12:07:52.062Z,8.45
2023-04-21T12:10:21.175Z,9.30
2023-04-21T12:12:48.880Z,8.55
2023-04-21T12:15:21.617Z,9.63
2023-04-21T12:17:51.316Z,11.02
2023-04-21T12:20:24.299Z,8.15
2023-04-21T12:22:52.510Z,15.70
2023-04-21T12:25:19.819Z,8.77
2023-04-21T12:28:08.047Z,9.82
2023-04-21T12:30:38.656Z,8.40
2023-04-21T12:33:08.681Z,8.32
2023-04-21T12:35:36.085Z,7.68
2023-04-21T12:38:03.267Z,8.27
2023-04-21T12:40:30.446Z,11.40
2023-04-21T12:42:57.676Z,9.85
2023-04-21T12:45:24.863Z,8.80
2023-04-21T12:47:52.078Z,8.65
2023-04-21T12:50:19.321Z,8.75
2023-04-21T12:52:46.720Z,10.35
2023-04-21T12:55:13.858Z,10.23
2023-04-21T12:57:40.996Z,12.15
2023-04-21T13:00:09.203Z,10.80
2023-04-21T13:02:38.229Z,12.13
2023-04-21T13:05:06.512Z,11.68
2023-04-21T13:07:37.271Z,11.45
2023-04-21T13:10:06.823Z,11.68
2023-04-21T13:12:34.310Z,11.43
2023-04-21T13:15:01.722Z,9.95
2023-04-21T13:17:30.134Z,10.40
2023-04-21T13:19:57.381Z,7.80
2023-04-21T13:22:24.678Z,8.38
2023-04-21T13:24:51.792Z,8.18
2023-04-21T13:27:18.939Z,7.60
2023-04-21T13:29:47.703Z,7.47
2023-04-21T13:32:15.485Z,9.13
2023-04-21T13:34:42.731Z,8.05
2023-04-21T13:37:12.633Z,9.60
2023-04-21T13:39:40.084Z,8.57
2023-04-21T13:42:07.503Z,7.63
2023-04-21T13:44:34.739Z,6.65
2023-04-21T13:47:02.108Z,6.72
2023-04-21T13:49:29.571Z,6.20
2023-04-21T13:51:56.788Z,6.18
2023-04-21T13:54:24.636Z,6.75
2023-04-21T13:56:51.973Z,7.32
2023-04-21T13:59:21.120Z,7.80
2023-04-21T14:01:48.598Z,7.22
2023-04-21T14:04:16.019Z,8.40
2023-04-21T14:06:43.495Z,7.10
2023-04-21T14:09:10.960Z,7.32
2023-04-21T14:11:38.309Z,8.38
2023-04-21T14:14:09.993Z,7.68
2023-04-21T14:16:38.872Z,6.50
2023-04-21T14:19:06.906Z,6.70
2023-04-21T14:21:34.768Z,7.70
2023-04-21T14:24:02.146Z,7.63
2023-04-21T14:26:29.408Z,9.88
2023-04-21T14:28:56.648Z,9.32
2023-04-21T14:31:23.942Z,8.15
2023-04-21T14:33:51.143Z,10.57
2023-04-21T14:36:18.507Z,9.90
2023-04-21T14:38:45.863Z,9.80
2023-04-21T14:41:13.416Z,9.15
2023-04-21T14:43:40.804Z,8.07
2023-04-21T14:46:08.617Z,8.43
2023-04-21T14:48:35.983Z,8.55
2023-04-21T14:51:03.295Z,8.93
2023-04-21T14:53:30.664Z,8.90
2023-04-21T14:55:57.910Z,9.10
2023-04-21T14:58:25.255Z,9.82
2023-04-21T15:00:52.564Z,9.27
2023-04-21T15:03:19.952Z,10.55
2023-04-21T15:05:47.327Z,9.20
2023-04-21T15:08:18.456Z,9.60
2023-04-21T15:10:45.904Z,11.15
2023-04-21T15:13:13.994Z,9.02
2023-04-21T15:15:41.911Z,9.82
2023-04-21T15:18:09.333Z,10.38
2023-04-21T15:20:44.394Z,13.30
2023-04-21T15:23:13.249Z,9.52
2023-04-21T15:25:40.751Z,11.80
2023-04-21T15:28:08.746Z,11.43
2023-04-21T15:30:36.176Z,10.93
2023-04-21T15:33:03.805Z,12.98
2023-04-21T15:35:32.191Z,11.80
2023-04-21T15:37:59.657Z,16.33
2023-04-21T15:40:27.255Z,13.80
2023-04-21T15:42:54.903Z,17.23
2023-04-21T15:45:22.173Z,18.95
2023-04-21T15:47:50.399Z,19.27
2023-04-21T15:50:17.787Z,21.33
2023-04-21T15:52:45.050Z,18.88
2023-04-21T15:55:12.596Z,17.23
2023-04-21T15:57:39.960Z,18.88
2023-04-21T16:00:10.220Z,18.70
2023-04-21T16:02:38.258Z,17.88
2023-04-21T16:05:06.229Z,18.25
2023-04-21T16:07:33.672Z,23.27
2023-04-21T16:10:01.044Z,19.33
2023-04-21T16:12:28.688Z,20.83
2023-04-21T16:15:04.145Z,19.55
2023-04-21T16:17:36.906Z,22.77
2023-04-21T16:20:07.429Z,18.70
2023-04-21T16:22:34.980Z,18.60
2023-04-21T16:25:02.310Z,19.55
2023-04-21T16:27:29.802Z,20.52
2023-04-21T16:29:57.436Z,24.20
2023-04-21T16:32:24.987Z,19.23
2023-04-21T16:34:52.346Z,22.48
2023-04-21T16:37:19.644Z,19.33
2023-04-21T16:39:46.849Z,16.27
2023-04-21T16:42:14.148Z,15.90
2023-04-21T16:44:41.592Z,16.65
2023-04-21T16:47:08.903Z,14.32
2023-04-21T16:49:36.108Z,20.02
2023-04-21T16:52:03.227Z,20.38
2023-04-21T16:54:30.591Z,19.33
2023-04-21T16:56:57.835Z,18.80
2023-04-21T16:59:25.045Z,26.63
2023-04-21T17:01:52.481Z,24.17
2023-04-21T17:04:19.872Z,27.00
2023-04-21T17:06:48.301Z,23.73
2023-04-21T17:09:15.746Z,26.38
2023-04-21T17:11:43.833Z,24.33
2023-04-21T17:14:10.948Z,21.48
2023-04-21T17:16:38.175Z,25.02
2023-04-21T17:19:05.602Z,23.08
2023-04-21T17:21:32.817Z,22.77
2023-04-21T17:24:00.656Z,20.77
2023-04-21T17:26:28.016Z,26.42
2023-04-21T17:28:55.103Z,21.30
2023-04-21T17:31:22.198Z,31.05
2023-04-21T17:33:49.516Z,29.02
2023-04-21T17:36:17.036Z,27.45
2023-04-21T17:38:44.331Z,35.55
2023-04-21T17:41:11.690Z,26.60
2023-04-21T17:43:38.919Z,32.38
2023-04-21T17:46:07.571Z,30.42
2023-04-21T17:48:34.968Z,30.60
2023-04-21T17:51:02.190Z,33.10
2023-04-21T17:53:29.481Z,32.00
2023-04-21T17:55:56.979Z,37.83
2023-04-21T17:58:26.353Z,31.67
2023-04-21T18:00:54.675Z,33.50
2023-04-21T18:03:22.196Z,34.25
2023-04-21T18:05:50.212Z,32.75
2023-04-21T18:08:17.498Z,28.60
2023-04-21T18:10:44.788Z,27.17
2023-04-21T18:13:12.014Z,27.85
2023-04-21T18:15:39.757Z,28.45
2023-04-21T18:18:06.951Z,30.02
2023-04-21T18:20:34.238Z,26.48
2023-04-21T18:23:01.358Z,28.48
2023-04-21T18:25:41.375Z,28.33
2023-04-21T18:28:11.042Z,31.60
2023-04-21T18:30:39.491Z,29.95
2023-04-21T18:33:06.940Z,25.80
2023-04-21T18:35:34.362Z,28.33
2023-04-21T18:38:01.763Z,27.38
2023-04-21T18:40:29.035Z,30.98
2023-04-21T18:42:56.942Z,26.35
2023-04-21T18:45:24.072Z,30.13
2023-04-21T18:47:51.126Z,30.77
2023-04-21T18:50:18.473Z,34.70
2023-04-21T18:52:45.718Z,30.70
2023-04-21T18:55:13.794Z,28.08
2023-04-21T18:57:41.454Z,25.70
2023-04-21T19:00:10.127Z,23.40
2023-04-21T19:02:38.231Z,26.88
2023-04-21T19:05:06.375Z,32.67
2023-04-21T19:07:35.081Z,27.35
2023-04-21T19:10:02.261Z,23.60
2023-04-21T19:12:29.381Z,24.55
2023-04-21T19:14:56.612Z,24.52
2023-04-21T19:17:23.787Z,31.17
2023-04-21T19:19:51.216Z,28.67
2023-04-21T19:22:20.076Z,30.10
2023-04-21T19:24:47.514Z,28.58
2023-04-21T19:27:14.824Z,28.48
2023-04-21T19:29:42.642Z,26.42
2023-04-21T19:32:09.958Z,27.05
2023-04-21T19:34:37.471Z,28.35
2023-04-21T19:37:05.278Z,34.38
2023-04-21T19:39:33.005Z,27.73
2023-04-21T19:42:01.184Z,26.08
2023-04-21T19:44:28.414Z,22.40
2023-04-21T19:46:55.504Z,27.00
2023-04-21T19:49:23.096Z,25.38
2023-04-21T19:51:50.302Z,24.85
2023-04-21T19:54:17.738Z,27.48
2023-04-21T19:56:45.032Z,29.88
2023-04-21T19:59:12.244Z,32.00
2023-04-21T20:01:39.701Z,30.02
2023-04-21T20:04:07.379Z,26.65
2023-04-21T20:06:36.367Z,23.95
2023-04-21T20:09:05.878Z,24.92
2023-04-21T20:11:34.059Z,26.60
2023-04-21T20:14:01.224Z,23.58
2023-04-21T20:16:28.875Z,22.52
2023-04-21T20:18:56.179Z,25.52
2023-04-21T20:21:23.400Z,26.52
2023-04-21T20:23:50.598Z,35.85
2023-04-21T20:26:17.874Z,23.05
2023-04-21T20:28:45.066Z,27.27
2023-04-21T20:31:12.274Z,27.08
2023-04-21T20:33:39.511Z,27.02
2023-04-21T20:36:09.420Z,30.95
2023-04-21T20:38:36.556Z,33.20
2023-04-21T20:41:03.640Z,28.83
2023-04-21T20:43:34.278Z,26.65
2023-04-21T20:46:01.714Z,26.38
2023-04-21T20:48:29.006Z,27.95
2023-04-21T20:50:56.507Z,32.25
2023-04-21T20:53:23.915Z,31.55
2023-04-21T20:55:51.144Z,35.92
2023-04-21T20:58:18.439Z,31.70
2023-04-21T21:00:45.767Z,30.23
2023-04-21T21:03:13.850Z,26.88
2023-04-21T21:05:41.601Z,27.38
2023-04-21T21:08:09.176Z,26.42
2023-04-21T21:10:36.347Z,31.65
2023-04-21T21:13:03.792Z,27.33
2023-04-21T21:15:31.116Z,27.08
2023-04-21T21:17:58.839Z,31.95
2023-04-21T21:20:26.262Z,30.42
2023-04-21T21:22:53.580Z,34.97
2023-04-21T21:25:21.173Z,36.00
2023-04-21T21:27:48.434Z,32.17
2023-04-21T21:30:15.765Z,31.27
2023-04-21T21:32:43.264Z,33.08
2023-04-21T21:35:12.121Z,28.17
2023-04-21T21:37:39.725Z,24.98
2023-04-21T21:40:07.817Z,28.85
2023-04-21T21:42:35.017Z,31.33
2023-04-21T21:45:02.286Z,34.72
2023-04-21T21:47:35.436Z,30.77
2023-04-21T21:50:03.751Z,29.15
2023-04-21T21:52:31.070Z,24.65
2023-04-21T21:54:58.567Z,26.55
2023-04-21T21:57:26.154Z,27.20
2023-04-21T21:59:53.519Z,30.33
2023-04-21T22:02:20.817Z,33.60
2023-04-21T22:04:48.096Z,30.05
2023-04-21T22:07:15.952Z,32.28
2023-04-21T22:09:43.202Z,31.77
2023-04-21T22:12:10.372Z,30.25
2023-04-21T22:14:37.672Z,46.83
2023-04-21T22:17:06.775Z,30.65
2023-04-21T22:19:34.148Z,35.25
2023-04-21T22:22:01.290Z,30.65
2023-04-21T22:24:28.471Z,30.52
2023-04-21T22:26:55.719Z,30.42
2023-04-21T22:29:22.892Z,29.02
2023-04-21T22:31:50.149Z,35.88
2023-04-21T22:34:19.606Z,39.45
2023-04-21T22:36:46.828Z,34.45
2023-04-21T22:39:13.999Z,30.67
2023-04-21T22:41:41.302Z,36.58
2023-04-21T22:44:08.754Z,31.00
2023-04-21T22:46:37.335Z,29.42
2023-04-21T22:49:05.226Z,32.72
2023-04-21T22:51:32.742Z,29.05
2023-04-21T22:54:00.626Z,30.42
2023-04-21T22:56:28.650Z,28.75
2023-04-21T22:58:55.897Z,36.53
2023-04-21T23:01:23.369Z,30.55
2023-04-21T23:03:50.823Z,32.65
2023-04-21T23:06:18.133Z,32.40
2023-04-21T23:08:45.498Z,32.88
2023-04-21T23:11:13.541Z,28.55
2023-04-21T23:13:41.088Z,27.23
2023-04-21T23:16:08.274Z,32.58
2023-04-21T23:18:35.976Z,30.52
2023-04-21T23:21:03.225Z,35.30
2023-04-21T23:23:30.516Z,35.47
2023-04-21T23:25:57.653Z,30.98
2023-04-21T23:28:24.834Z,31.90
2023-04-21T23:30:52.054Z,36.38
2023-04-21T23:33:19.260Z,36.38
2023-04-21T23:35:46.527Z,38.72
2023-04-21T23:38:13.761Z,36.40
2023-04-21T23:40:41.377Z,28.30
2023-04-21T23:43:08.546Z,28.95
2023-04-21T23:45:36.031Z,33.85
2023-04-21T23:48:03.336Z,29.42
2023-04-21T23:50:30.617Z,25.38
2023-04-21T23:52:57.806Z,27.45
2023-04-21T23:55:25.031Z,27.75
2023-04-21T23:57:52.140Z,27.88
